createdAt,value
2022-12-19T00:00:48.815Z,9.51
2022-12-19T00:01:48.968Z,9.56
2022-12-19T00:02:48.887Z,9.45
2022-12-19T00:03:48.818Z,9.61
2022-12-19T00:04:48.763Z,9.78
2022-12-19T00:05:48.748Z,9.51
2022-12-19T00:06:48.735Z,9.56
2022-12-19T00:07:48.723Z,9.51
2022-12-19T00:08:48.709Z,9.67
2022-12-19T00:09:48.817Z,9.56
2022-12-19T00:10:48.688Z,9.56
2022-12-19T00:11:48.709Z,9.45
2022-12-19T00:12:48.658Z,9.61
2022-12-19T00:13:48.644Z,9.56
2022-12-19T00:14:48.633Z,9.35
2022-12-19T00:15:48.703Z,9.61
2022-12-19T00:16:48.610Z,9.29
2022-12-19T00:17:48.596Z,9.56
2022-12-19T00:18:48.580Z,9.51
2022-12-19T00:19:48.567Z,9.56
2022-12-19T00:20:48.553Z,9.51
2022-12-19T00:21:48.542Z,9.61
2022-12-19T00:22:48.529Z,9.61
2022-12-19T00:23:48.514Z,9.56
2022-12-19T00:24:48.506Z,9.56
2022-12-19T00:25:49.101Z,9.78
2022-12-19T00:26:48.473Z,9.61
2022-12-19T00:27:48.473Z,9.56
2022-12-19T00:28:48.451Z,9.56
2022-12-19T00:29:48.437Z,9.88
2022-12-19T00:30:48.428Z,9.56
2022-12-19T00:31:48.486Z,9.56
2022-12-19T00:32:48.398Z,9.61
2022-12-19T00:33:48.387Z,9.72
2022-12-19T00:34:48.377Z,9.51
2022-12-19T00:35:48.362Z,9.56
2022-12-19T00:36:48.349Z,9.56
2022-12-19T00:37:49.512Z,9.56
2022-12-19T00:38:48.329Z,9.40
2022-12-19T00:39:48.313Z,9.51
2022-12-19T00:40:48.293Z,9.40
2022-12-19T00:41:48.395Z,9.56
2022-12-19T00:42:53.367Z,9.51
2022-12-19T00:43:48.257Z,9.56
2022-12-19T00:44:48.239Z,9.56
2022-12-19T00:45:48.286Z,9.56
2022-12-19T00:46:51.853Z,9.72
2022-12-19T00:47:48.201Z,9.61
2022-12-19T00:48:48.192Z,9.61
2022-12-19T00:49:48.172Z,9.56
2022-12-19T00:50:48.162Z,9.67
2022-12-19T00:51:48.165Z,9.56
2022-12-19T00:52:48.140Z,9.45
2022-12-19T00:53:48.264Z,9.67
2022-12-19T00:54:48.149Z,9.61
2022-12-19T00:55:48.146Z,9.56
2022-12-19T00:56:48.086Z,9.72
2022-12-19T00:57:48.200Z,9.56
2022-12-19T00:58:48.060Z,9.61
2022-12-19T00:59:48.047Z,9.51
2022-12-19T01:00:48.057Z,9.67
2022-12-19T01:01:48.159Z,9.61
2022-12-19T01:02:48.197Z,9.61
2022-12-19T01:04:18.762Z,9.56
2022-12-19T01:04:49.009Z,9.56
2022-12-19T01:05:47.968Z,9.51
2022-12-19T01:06:47.961Z,9.61
2022-12-19T01:07:47.944Z,9.61
2022-12-19T01:08:47.932Z,9.94
2022-12-19T01:09:47.920Z,9.67
2022-12-19T01:10:47.907Z,9.61
2022-12-19T01:11:47.892Z,9.56
2022-12-19T01:12:47.880Z,9.51
2022-12-19T01:13:47.979Z,9.51
2022-12-19T01:14:47.847Z,9.56
2022-12-19T01:15:47.837Z,9.61
2022-12-19T01:16:47.982Z,9.78
2022-12-19T01:17:47.815Z,9.51
2022-12-19T01:18:47.800Z,9.61
2022-12-19T01:19:47.787Z,9.51
2022-12-19T01:20:47.777Z,9.61
2022-12-19T01:21:47.757Z,9.24
2022-12-19T01:22:47.749Z,9.56
2022-12-19T01:23:47.727Z,9.56
2022-12-19T01:24:47.712Z,9.35
2022-12-19T01:25:47.697Z,9.45
2022-12-19T01:26:47.691Z,9.67
2022-12-19T01:27:47.672Z,9.51
2022-12-19T01:28:47.663Z,9.56
2022-12-19T01:29:52.753Z,9.45
2022-12-19T01:30:48.085Z,9.56
2022-12-19T01:31:47.705Z,9.40
2022-12-19T01:32:47.604Z,9.40
2022-12-19T01:33:47.588Z,9.83
2022-12-19T01:34:47.583Z,9.35
2022-12-19T01:35:47.567Z,9.51
2022-12-19T01:36:47.555Z,9.61
2022-12-19T01:37:47.538Z,9.35
2022-12-19T01:38:47.528Z,9.35
2022-12-19T01:39:47.525Z,9.51
2022-12-19T01:40:47.498Z,9.61
2022-12-19T01:41:47.487Z,9.29
2022-12-19T01:42:47.475Z,9.29
2022-12-19T01:43:47.457Z,9.45
2022-12-19T01:44:47.448Z,9.35
2022-12-19T01:45:47.680Z,9.40
2022-12-19T01:46:47.419Z,9.13
2022-12-19T01:47:48.335Z,9.40
2022-12-19T01:48:48.411Z,9.29
2022-12-19T01:49:47.373Z,9.40
2022-12-19T01:50:58.804Z,9.29
2022-12-19T01:51:48.373Z,9.40
2022-12-19T01:52:47.335Z,9.24
2022-12-19T01:53:49.209Z,9.24
2022-12-19T01:54:47.311Z,9.40
2022-12-19T01:55:47.298Z,9.35
2022-12-19T01:56:47.260Z,9.35
2022-12-19T01:57:47.247Z,9.35
2022-12-19T01:58:47.259Z,9.40
2022-12-19T01:59:47.216Z,9.40
2022-12-19T02:00:47.251Z,9.40
2022-12-19T02:01:51.821Z,9.45
2022-12-19T02:02:47.290Z,9.35
2022-12-19T02:03:47.178Z,9.40
2022-12-19T02:04:47.149Z,9.29
2022-12-19T02:05:47.137Z,9.40
2022-12-19T02:06:47.140Z,9.24
2022-12-19T02:07:47.104Z,9.35
2022-12-19T02:08:47.101Z,9.45
2022-12-19T02:09:47.083Z,9.40
2022-12-19T02:10:47.076Z,9.51
2022-12-19T02:11:47.052Z,9.18
2022-12-19T02:12:47.043Z,9.35
2022-12-19T02:13:47.025Z,9.45
2022-12-19T02:14:47.025Z,9.94
2022-12-19T02:15:47.006Z,9.35
2022-12-19T02:16:47.058Z,9.45
2022-12-19T02:17:50.154Z,9.29
2022-12-19T02:18:46.962Z,9.35
2022-12-19T02:19:46.943Z,9.35
2022-12-19T02:20:46.941Z,9.35
2022-12-19T02:21:46.918Z,9.35
2022-12-19T02:22:46.907Z,9.45
2022-12-19T02:23:46.897Z,9.45
2022-12-19T02:24:46.889Z,9.24
2022-12-19T02:25:46.876Z,9.29
2022-12-19T02:26:46.859Z,9.35
2022-12-19T02:27:46.850Z,9.29
2022-12-19T02:28:46.857Z,9.40
2022-12-19T02:29:46.823Z,9.35
2022-12-19T02:30:46.812Z,9.35
2022-12-19T02:31:46.861Z,9.35
2022-12-19T02:32:46.777Z,9.45
2022-12-19T02:33:46.887Z,9.02
2022-12-19T02:34:46.752Z,9.35
2022-12-19T02:35:46.942Z,9.35
2022-12-19T02:36:46.882Z,9.45
2022-12-19T02:37:46.712Z,9.24
2022-12-19T02:38:46.699Z,9.24
2022-12-19T02:39:46.695Z,9.72
2022-12-19T02:40:46.680Z,9.45
2022-12-19T02:41:46.668Z,9.24
2022-12-19T02:42:46.659Z,9.35
2022-12-19T02:43:46.639Z,9.35
2022-12-19T02:44:46.629Z,9.35
2022-12-19T02:45:46.678Z,9.29
2022-12-19T02:46:46.598Z,9.35
2022-12-19T02:47:46.621Z,9.45
2022-12-19T02:48:46.580Z,9.72
2022-12-19T02:49:46.682Z,9.40
2022-12-19T02:50:47.957Z,9.13
2022-12-19T02:51:46.538Z,9.35
2022-12-19T02:52:46.529Z,9.51
2022-12-19T02:53:46.509Z,9.08
2022-12-19T02:54:46.503Z,9.29
2022-12-19T02:55:46.477Z,9.40
2022-12-19T02:56:46.468Z,9.29
2022-12-19T02:57:46.457Z,9.29
2022-12-19T02:58:46.926Z,9.13
2022-12-19T02:59:46.433Z,9.13
2022-12-19T03:00:46.419Z,9.61
2022-12-19T03:01:46.631Z,9.40
2022-12-19T03:02:52.176Z,9.29
2022-12-19T03:03:48.379Z,9.56
2022-12-19T03:04:46.367Z,9.13
2022-12-19T03:05:46.473Z,9.56
2022-12-19T03:06:46.349Z,9.18
2022-12-19T03:07:46.330Z,9.18
2022-12-19T03:08:46.313Z,9.35
2022-12-19T03:09:46.308Z,9.29
2022-12-19T03:10:46.287Z,9.18
2022-12-19T03:11:46.289Z,9.24
2022-12-19T03:12:46.267Z,9.35
2022-12-19T03:13:46.260Z,9.13
2022-12-19T03:14:46.247Z,9.18
2022-12-19T03:15:46.274Z,9.24
2022-12-19T03:16:46.252Z,9.08
2022-12-19T03:17:46.202Z,9.51
2022-12-19T03:18:46.194Z,9.13
2022-12-19T03:19:46.186Z,9.18
2022-12-19T03:20:46.164Z,9.13
2022-12-19T03:21:46.277Z,9.08
2022-12-19T03:22:46.143Z,9.18
2022-12-19T03:23:46.128Z,9.24
2022-12-19T03:24:46.113Z,9.18
2022-12-19T03:25:46.105Z,9.40
2022-12-19T03:26:46.100Z,9.13
2022-12-19T03:27:46.066Z,9.24
2022-12-19T03:28:46.053Z,9.08
2022-12-19T03:29:46.044Z,9.18
2022-12-19T03:30:46.079Z,9.02
2022-12-19T03:31:46.017Z,9.24
2022-12-19T03:32:46.007Z,9.13
2022-12-19T03:33:45.991Z,9.24
2022-12-19T03:34:45.979Z,9.13
2022-12-19T03:35:45.977Z,9.24
2022-12-19T03:36:45.959Z,9.13
2022-12-19T03:37:46.063Z,9.18
2022-12-19T03:38:45.931Z,9.35
2022-12-19T03:39:45.925Z,9.18
2022-12-19T03:40:46.110Z,9.13
2022-12-19T03:41:45.898Z,9.02
2022-12-19T03:42:45.877Z,9.29
2022-12-19T03:43:45.866Z,9.56
2022-12-19T03:44:45.851Z,9.13
2022-12-19T03:45:45.872Z,9.24
2022-12-19T03:46:45.825Z,9.08
2022-12-19T03:47:45.818Z,9.24
2022-12-19T03:48:45.800Z,8.81
2022-12-19T03:49:45.789Z,9.24
2022-12-19T03:50:45.770Z,9.83
2022-12-19T03:51:45.758Z,9.13
2022-12-19T03:52:45.746Z,9.02
2022-12-19T03:53:45.854Z,9.13
2022-12-19T03:54:45.719Z,9.18
2022-12-19T03:55:45.704Z,9.13
2022-12-19T03:56:45.696Z,9.24
2022-12-19T03:57:45.682Z,9.18
2022-12-19T03:58:45.668Z,9.08
2022-12-19T03:59:45.660Z,9.24
2022-12-19T04:00:45.642Z,9.13
2022-12-19T04:01:45.711Z,9.18
2022-12-19T04:02:45.615Z,9.08
2022-12-19T04:03:45.689Z,9.18
2022-12-19T04:04:45.592Z,9.18
2022-12-19T04:05:45.579Z,9.18
2022-12-19T04:06:45.573Z,8.92
2022-12-19T04:07:45.557Z,9.18
2022-12-19T04:08:45.542Z,9.18
2022-12-19T04:09:45.605Z,9.13
2022-12-19T04:10:45.505Z,9.18
2022-12-19T04:11:45.495Z,9.18
2022-12-19T04:12:45.479Z,9.13
2022-12-19T04:13:45.472Z,9.18
2022-12-19T04:14:45.456Z,9.18
2022-12-19T04:15:45.498Z,9.29
2022-12-19T04:16:45.424Z,9.24
2022-12-19T04:17:45.420Z,9.24
2022-12-19T04:18:45.402Z,9.29
2022-12-19T04:19:45.396Z,9.18
2022-12-19T04:20:45.388Z,9.13
2022-12-19T04:21:45.367Z,9.18
2022-12-19T04:22:45.350Z,9.18
2022-12-19T04:23:45.341Z,9.18
2022-12-19T04:24:45.329Z,9.18
2022-12-19T04:25:45.430Z,9.24
2022-12-19T04:26:45.303Z,9.13
2022-12-19T04:27:45.296Z,9.18
2022-12-19T04:28:45.276Z,9.40
2022-12-19T04:29:45.258Z,9.13
2022-12-19T04:30:45.334Z,9.13
2022-12-19T04:31:45.231Z,9.18
2022-12-19T04:32:45.229Z,9.18
2022-12-19T04:33:45.213Z,9.02
2022-12-19T04:34:45.208Z,9.13
2022-12-19T04:35:45.186Z,8.75
2022-12-19T04:36:45.170Z,8.97
2022-12-19T04:37:45.157Z,9.35
2022-12-19T04:38:45.159Z,8.97
2022-12-19T04:39:45.142Z,8.97
2022-12-19T04:40:45.111Z,9.13
2022-12-19T04:41:45.220Z,9.02
2022-12-19T04:42:45.087Z,8.92
2022-12-19T04:43:45.105Z,9.02
2022-12-19T04:44:45.060Z,8.92
2022-12-19T04:45:45.041Z,9.18
2022-12-19T04:46:45.071Z,9.02
2022-12-19T04:47:45.031Z,9.08
2022-12-19T04:48:45.007Z,8.97
2022-12-19T04:49:44.992Z,8.75
2022-12-19T04:50:44.987Z,9.02
2022-12-19T04:51:44.959Z,8.92
2022-12-19T04:52:44.950Z,8.92
2022-12-19T04:53:44.948Z,9.02
2022-12-19T04:54:44.921Z,9.13
2022-12-19T04:55:44.916Z,9.02
2022-12-19T04:56:44.900Z,8.97
2022-12-19T04:57:45.009Z,9.02
2022-12-19T04:58:44.883Z,9.24
2022-12-19T04:59:44.864Z,9.02
2022-12-19T05:00:44.849Z,9.02
2022-12-19T05:01:44.960Z,9.35
2022-12-19T05:02:45.056Z,8.97
2022-12-19T05:03:47.783Z,8.86
2022-12-19T05:04:44.797Z,8.97
2022-12-19T05:05:44.770Z,8.86
2022-12-19T05:06:44.787Z,8.97
2022-12-19T05:07:44.749Z,9.02
2022-12-19T05:08:44.734Z,9.02
2022-12-19T05:09:44.723Z,9.08
2022-12-19T05:10:44.734Z,8.92
2022-12-19T05:11:44.703Z,8.70
2022-12-19T05:12:44.685Z,9.02
2022-12-19T05:13:44.786Z,9.02
2022-12-19T05:14:44.658Z,8.97
2022-12-19T05:15:44.691Z,9.08
2022-12-19T05:16:44.634Z,9.08
2022-12-19T05:17:44.616Z,8.81
2022-12-19T05:18:44.625Z,8.97
2022-12-19T05:19:44.583Z,9.02
2022-12-19T05:20:44.570Z,9.02
2022-12-19T05:21:44.561Z,9.08
2022-12-19T05:22:44.549Z,9.35
2022-12-19T05:23:44.534Z,8.92
2022-12-19T05:24:44.525Z,9.02
2022-12-19T05:25:44.508Z,9.08
2022-12-19T05:26:44.497Z,8.97
2022-12-19T05:27:44.478Z,9.13
2022-12-19T05:28:44.465Z,8.92
2022-12-19T05:29:44.583Z,8.97
2022-12-19T05:30:49.171Z,8.97
2022-12-19T05:31:45.552Z,9.02
2022-12-19T05:32:44.419Z,9.13
2022-12-19T05:33:44.442Z,9.02
2022-12-19T05:34:44.395Z,9.02
2022-12-19T05:35:44.402Z,9.02
2022-12-19T05:36:44.395Z,8.97
2022-12-19T05:37:44.348Z,9.35
2022-12-19T05:38:44.347Z,9.08
2022-12-19T05:39:44.321Z,9.02
2022-12-19T05:40:44.308Z,8.97
2022-12-19T05:41:48.685Z,8.97
2022-12-19T05:42:44.282Z,9.08
2022-12-19T05:43:44.260Z,8.97
2022-12-19T05:44:44.251Z,8.92
2022-12-19T05:45:44.372Z,9.13
2022-12-19T05:46:44.270Z,8.97
2022-12-19T05:47:44.558Z,8.92
2022-12-19T05:48:44.201Z,8.97
2022-12-19T05:49:44.188Z,9.08
2022-12-19T05:50:44.174Z,9.08
2022-12-19T05:51:44.164Z,8.97
2022-12-19T05:52:44.147Z,9.02
2022-12-19T05:53:44.132Z,8.97
2022-12-19T05:54:44.117Z,9.08
2022-12-19T05:55:44.098Z,8.97
2022-12-19T05:56:44.087Z,8.97
2022-12-19T05:57:44.074Z,8.97
2022-12-19T05:58:44.067Z,8.92
2022-12-19T05:59:44.055Z,9.13
2022-12-19T06:00:44.048Z,8.97
2022-12-19T06:01:44.263Z,8.97
2022-12-19T06:02:44.152Z,9.08
2022-12-19T06:03:44.030Z,8.97
2022-12-19T06:04:43.983Z,8.92
2022-12-19T06:05:43.981Z,9.13
2022-12-19T06:06:43.959Z,9.08
2022-12-19T06:07:43.949Z,8.97
2022-12-19T06:08:43.929Z,8.97
2022-12-19T06:09:43.912Z,9.02
2022-12-19T06:10:43.898Z,8.97
2022-12-19T06:11:43.884Z,8.92
2022-12-19T06:12:43.875Z,8.75
2022-12-19T06:13:43.861Z,8.97
2022-12-19T06:14:43.848Z,8.81
2022-12-19T06:15:43.836Z,8.81
2022-12-19T06:16:43.993Z,8.86
2022-12-19T06:17:43.927Z,8.70
2022-12-19T06:18:45.110Z,9.02
2022-12-19T06:19:43.782Z,8.97
2022-12-19T06:20:43.767Z,8.86
2022-12-19T06:21:48.264Z,8.75
2022-12-19T06:22:43.746Z,8.81
2022-12-19T06:23:43.725Z,8.81
2022-12-19T06:24:43.709Z,9.02
2022-12-19T06:25:43.698Z,8.59
2022-12-19T06:26:43.686Z,8.75
2022-12-19T06:27:43.675Z,8.65
2022-12-19T06:28:43.658Z,8.81
2022-12-19T06:29:43.637Z,8.81
2022-12-19T06:30:43.639Z,8.75
2022-12-19T06:31:43.659Z,8.81
2022-12-19T06:32:43.599Z,8.81
2022-12-19T06:33:43.742Z,8.81
2022-12-19T06:35:43.562Z,8.59
2022-12-19T06:36:43.548Z,8.81
2022-12-19T06:37:43.537Z,8.86
2022-12-19T06:38:43.521Z,8.81
2022-12-19T06:39:43.510Z,8.75
2022-12-19T06:40:43.493Z,8.81
2022-12-19T06:41:43.503Z,9.08
2022-12-19T06:42:43.471Z,8.86
2022-12-19T06:43:43.461Z,8.75
2022-12-19T06:44:43.438Z,8.75
2022-12-19T06:45:43.492Z,8.75
2022-12-19T06:46:43.409Z,8.86
2022-12-19T06:47:43.406Z,8.92
2022-12-19T06:48:43.394Z,8.81
2022-12-19T06:49:43.390Z,8.75
2022-12-19T06:50:43.362Z,8.65
2022-12-19T06:51:43.340Z,8.75
2022-12-19T06:52:43.335Z,8.81
2022-12-19T06:53:43.320Z,8.75
2022-12-19T06:54:43.313Z,8.65
2022-12-19T06:55:43.293Z,8.81
2022-12-19T06:56:43.280Z,8.86
2022-12-19T06:57:43.259Z,8.81
2022-12-19T06:58:43.258Z,8.75
2022-12-19T06:59:43.282Z,8.92
2022-12-19T07:00:43.263Z,8.81
2022-12-19T07:01:43.320Z,8.86
2022-12-19T07:02:43.351Z,8.70
2022-12-19T07:03:43.182Z,9.02
2022-12-19T07:04:43.175Z,8.75
2022-12-19T07:05:43.279Z,8.75
2022-12-19T07:06:48.740Z,8.75
2022-12-19T07:07:43.132Z,8.75
2022-12-19T07:08:43.119Z,8.86
2022-12-19T07:09:43.102Z,8.81
2022-12-19T07:10:43.153Z,8.81
2022-12-19T07:11:43.083Z,8.75
2022-12-19T07:12:43.079Z,8.75
2022-12-19T07:13:43.053Z,8.75
2022-12-19T07:14:43.034Z,8.75
2022-12-19T07:15:43.023Z,8.75
2022-12-19T07:16:43.073Z,9.13
2022-12-19T07:17:42.994Z,8.54
2022-12-19T07:18:42.980Z,8.81
2022-12-19T07:19:42.967Z,9.02
2022-12-19T07:20:45.228Z,8.70
2022-12-19T07:21:43.068Z,8.75
2022-12-19T07:22:42.938Z,8.81
2022-12-19T07:23:42.912Z,8.70
2022-12-19T07:24:42.908Z,8.92
2022-12-19T07:25:42.882Z,8.81
2022-12-19T07:26:42.877Z,8.81
2022-12-19T07:27:42.852Z,8.81
2022-12-19T07:28:42.850Z,8.49
2022-12-19T07:29:42.827Z,8.81
2022-12-19T07:30:42.818Z,8.86
2022-12-19T07:31:42.869Z,8.70
2022-12-19T07:32:42.790Z,8.75
2022-12-19T07:33:42.784Z,9.29
2022-12-19T07:34:42.768Z,8.81
2022-12-19T07:35:42.751Z,9.08
2022-12-19T07:36:42.741Z,8.86
2022-12-19T07:37:42.845Z,8.81
2022-12-19T07:38:42.716Z,8.86
2022-12-19T07:39:42.695Z,8.59
2022-12-19T07:40:42.689Z,8.81
2022-12-19T07:41:42.686Z,8.49
2022-12-19T07:42:42.661Z,8.75
2022-12-19T07:43:42.635Z,8.75
2022-12-19T07:44:42.638Z,8.86
2022-12-19T07:45:42.694Z,8.75
2022-12-19T07:46:42.607Z,8.92
2022-12-19T07:47:42.608Z,8.65
2022-12-19T07:48:42.582Z,8.81
2022-12-19T07:49:42.565Z,8.75
2022-12-19T07:50:42.556Z,8.86
2022-12-19T07:51:42.533Z,8.65
2022-12-19T07:52:42.525Z,8.81
2022-12-19T07:53:42.628Z,8.86
2022-12-19T07:54:42.496Z,8.75
2022-12-19T07:55:42.487Z,8.75
2022-12-19T07:56:42.469Z,8.70
2022-12-19T07:57:42.661Z,8.59
2022-12-19T07:58:42.448Z,8.75
2022-12-19T07:59:42.437Z,8.59
2022-12-19T08:00:42.522Z,8.81
2022-12-19T08:01:42.508Z,8.81
2022-12-19T08:02:42.550Z,8.75
2022-12-19T08:03:42.374Z,8.81
2022-12-19T08:04:42.371Z,8.75
2022-12-19T08:05:42.350Z,8.86
2022-12-19T08:06:42.343Z,8.81
2022-12-19T08:07:42.334Z,8.70
2022-12-19T08:08:42.311Z,8.59
2022-12-19T08:09:42.420Z,8.59
2022-12-19T08:10:42.286Z,8.75
2022-12-19T08:11:42.282Z,8.59
2022-12-19T08:12:42.264Z,8.70
2022-12-19T08:13:46.162Z,8.65
2022-12-19T08:14:42.242Z,8.59
2022-12-19T08:15:42.225Z,8.81
2022-12-19T08:17:11.416Z,8.70
2022-12-19T08:17:43.254Z,8.59
2022-12-19T08:18:42.207Z,8.81
2022-12-19T08:19:42.175Z,8.70
2022-12-19T08:20:42.154Z,8.81
2022-12-19T08:21:42.147Z,8.59
2022-12-19T08:22:42.131Z,8.59
2022-12-19T08:23:42.113Z,8.65
2022-12-19T08:24:42.111Z,8.65
2022-12-19T08:25:42.231Z,8.54
2022-12-19T08:26:47.434Z,8.65
2022-12-19T08:27:42.061Z,8.43
2022-12-19T08:28:42.061Z,8.38
2022-12-19T08:29:42.043Z,8.49
2022-12-19T08:30:42.073Z,8.70
2022-12-19T08:31:42.007Z,8.54
2022-12-19T08:32:42.011Z,8.59
2022-12-19T08:33:41.982Z,8.59
2022-12-19T08:34:41.980Z,8.59
2022-12-19T08:35:41.960Z,8.81
2022-12-19T08:36:41.950Z,8.59
2022-12-19T08:37:41.928Z,8.65
2022-12-19T08:38:41.962Z,8.65
2022-12-19T08:39:41.915Z,8.43
2022-12-19T08:40:47.188Z,8.54
2022-12-19T08:41:42.003Z,8.54
2022-12-19T08:42:41.869Z,8.54
2022-12-19T08:43:41.854Z,8.86
2022-12-19T08:44:41.844Z,8.70
2022-12-19T08:45:41.863Z,8.59
2022-12-19T08:46:48.073Z,8.59
2022-12-19T08:47:42.824Z,8.59
2022-12-19T08:48:41.784Z,8.70
2022-12-19T08:49:41.773Z,8.59
2022-12-19T08:50:41.769Z,8.54
2022-12-19T08:51:41.741Z,8.49
2022-12-19T08:52:41.736Z,8.65
2022-12-19T08:53:41.715Z,8.54
2022-12-19T08:54:41.704Z,8.59
2022-12-19T08:55:41.687Z,8.54
2022-12-19T08:56:46.545Z,8.59
2022-12-19T08:57:41.682Z,8.59
2022-12-19T08:58:42.044Z,8.54
2022-12-19T08:59:41.636Z,8.65
2022-12-19T09:00:41.616Z,8.59
2022-12-19T09:01:41.770Z,8.65
2022-12-19T09:02:41.787Z,8.65
2022-12-19T09:04:12.247Z,8.75
2022-12-19T09:05:59.913Z,8.59
2022-12-19T09:06:02.217Z,8.54
2022-12-19T09:06:42.663Z,8.59
2022-12-19T09:07:41.521Z,8.54
2022-12-19T09:08:41.510Z,8.65
2022-12-19T09:09:41.497Z,8.65
2022-12-19T09:10:41.482Z,8.54
2022-12-19T09:11:48.145Z,8.54
2022-12-19T09:12:42.483Z,8.54
2022-12-19T09:13:41.561Z,8.70
2022-12-19T09:14:41.444Z,8.75
2022-12-19T09:15:41.430Z,8.43
2022-12-19T09:16:41.448Z,8.54
2022-12-19T09:17:41.387Z,8.75
2022-12-19T09:18:47.913Z,8.33
2022-12-19T09:19:47.860Z,8.65
2022-12-19T09:20:41.338Z,8.92
2022-12-19T09:21:41.329Z,8.59
2022-12-19T09:22:41.317Z,8.59
2022-12-19T09:23:41.301Z,8.65
2022-12-19T09:24:41.287Z,8.59
2022-12-19T09:25:41.277Z,8.59
2022-12-19T09:26:41.261Z,8.65
2022-12-19T09:28:09.177Z,8.65
2022-12-19T09:28:42.265Z,8.54
2022-12-19T09:29:41.348Z,8.70
2022-12-19T09:30:41.272Z,8.59
2022-12-19T09:31:41.222Z,8.65
2022-12-19T09:32:41.191Z,8.65
2022-12-19T09:33:43.589Z,8.59
2022-12-19T09:34:41.163Z,8.54
2022-12-19T09:35:41.146Z,8.54
2022-12-19T09:36:41.128Z,8.65
2022-12-19T09:37:41.120Z,8.59
2022-12-19T09:38:41.096Z,8.54
2022-12-19T09:39:41.102Z,8.97
2022-12-19T09:40:41.077Z,8.54
2022-12-19T09:41:41.074Z,8.59
2022-12-19T09:42:41.679Z,8.49
2022-12-19T09:43:41.515Z,8.86
2022-12-19T09:44:41.020Z,8.59
2022-12-19T09:45:41.133Z,8.59
2022-12-19T09:46:41.011Z,8.75
2022-12-19T09:47:40.982Z,8.65
2022-12-19T09:48:40.970Z,8.81
2022-12-19T09:49:41.991Z,8.59
2022-12-19T09:50:40.939Z,8.38
2022-12-19T09:51:40.929Z,8.65
2022-12-19T09:52:40.922Z,8.54
2022-12-19T09:53:40.911Z,8.59
2022-12-19T09:54:40.887Z,8.65
2022-12-19T09:55:40.884Z,8.59
2022-12-19T09:56:46.464Z,8.49
2022-12-19T09:57:40.851Z,8.43
2022-12-19T09:58:40.843Z,8.92
2022-12-19T09:59:45.979Z,8.81
2022-12-19T10:00:41.830Z,8.92
2022-12-19T10:01:41.045Z,8.54
2022-12-19T10:02:40.955Z,8.65
2022-12-19T10:03:41.058Z,8.59
2022-12-19T10:04:40.751Z,8.70
2022-12-19T10:07:11.272Z,8.81
2022-12-19T10:07:11.366Z,8.54
2022-12-19T10:08:07.204Z,8.54
2022-12-19T10:09:33.855Z,8.59
2022-12-19T10:10:57.668Z,8.59
2022-12-19T10:12:38.460Z,8.59
2022-12-19T10:12:43.073Z,8.70
2022-12-19T10:12:51.166Z,8.81
2022-12-19T10:13:41.665Z,8.54
2022-12-19T10:14:40.614Z,8.75
2022-12-19T10:15:40.648Z,8.54
2022-12-19T10:16:40.592Z,8.59
2022-12-19T10:17:40.695Z,8.65
2022-12-19T10:18:40.603Z,8.59
2022-12-19T10:19:40.601Z,8.54
2022-12-19T10:20:40.546Z,8.49
2022-12-19T10:22:16.520Z,8.70
2022-12-19T10:22:41.538Z,8.70
2022-12-19T10:23:40.496Z,8.59
2022-12-19T10:24:40.484Z,8.54
2022-12-19T10:25:40.480Z,8.75
2022-12-19T10:26:40.453Z,8.59
2022-12-19T10:27:57.216Z,8.49
2022-12-19T10:28:40.428Z,8.59
2022-12-19T10:29:40.413Z,8.54
2022-12-19T10:30:40.395Z,8.43
2022-12-19T10:31:40.493Z,8.65
2022-12-19T10:32:40.393Z,8.65
2022-12-19T10:33:40.504Z,8.59
2022-12-19T10:34:41.004Z,8.38
2022-12-19T10:35:40.414Z,8.65
2022-12-19T10:37:13.060Z,8.43
2022-12-19T10:37:47.429Z,8.54
2022-12-19T10:38:40.321Z,8.70
2022-12-19T10:39:41.307Z,8.54
2022-12-19T10:40:40.259Z,8.54
2022-12-19T10:41:44.101Z,8.54
2022-12-19T10:42:40.244Z,8.59
2022-12-19T10:43:44.404Z,8.59
2022-12-19T10:44:40.289Z,8.49
2022-12-19T10:45:40.203Z,8.59
2022-12-19T10:46:40.265Z,8.54
2022-12-19T10:47:40.232Z,8.70
2022-12-19T10:48:40.155Z,8.54
2022-12-19T10:49:40.317Z,8.65
2022-12-19T10:50:40.136Z,8.43
2022-12-19T10:51:40.134Z,8.70
2022-12-19T10:52:40.117Z,8.81
2022-12-19T10:53:40.087Z,8.43
2022-12-19T10:54:40.212Z,8.70
2022-12-19T10:55:40.086Z,8.65
2022-12-19T10:56:40.052Z,8.59
2022-12-19T10:57:40.038Z,8.54
2022-12-19T10:58:40.031Z,8.59
2022-12-19T10:59:40.008Z,8.70
2022-12-19T11:00:40.024Z,8.65
2022-12-19T11:01:40.190Z,8.59
2022-12-19T11:02:40.176Z,8.65
2022-12-19T11:03:40.107Z,8.75
2022-12-19T11:04:40.059Z,8.54
2022-12-19T11:05:40.076Z,8.54
2022-12-19T11:06:39.915Z,8.81
2022-12-19T11:07:39.913Z,8.22
2022-12-19T11:08:39.914Z,8.54
2022-12-19T11:09:39.873Z,8.54
2022-12-19T11:14:28.978Z,8.75
2022-12-19T11:14:45.826Z,8.65
2022-12-19T11:16:21.301Z,8.54
2022-12-19T11:19:17.637Z,8.59
2022-12-19T11:19:23.538Z,8.54
2022-12-19T11:21:35.853Z,8.65
2022-12-19T11:27:03.432Z,8.59
2022-12-19T11:27:45.699Z,8.59
2022-12-19T11:29:03.050Z,8.54
2022-12-19T11:29:16.269Z,8.38
2022-12-19T11:29:19.747Z,8.54
2022-12-19T11:29:27.069Z,8.59
2022-12-19T11:29:32.069Z,8.59
2022-12-19T11:29:33.481Z,8.70
2022-12-19T11:29:46.627Z,8.75
2022-12-19T11:30:07.050Z,8.59
2022-12-19T11:30:38.840Z,8.54
2022-12-19T11:30:40.816Z,8.59
2022-12-19T11:30:43.940Z,8.59
2022-12-19T11:32:42.986Z,8.59
2022-12-19T11:33:39.743Z,8.59
2022-12-19T11:34:39.677Z,8.59
2022-12-19T11:35:39.667Z,8.75
2022-12-19T11:36:39.617Z,8.65
2022-12-19T11:37:39.730Z,8.65
2022-12-19T11:38:39.737Z,8.75
2022-12-19T11:39:39.613Z,8.59
2022-12-19T11:40:44.908Z,8.54
2022-12-19T11:41:39.517Z,8.81
2022-12-19T11:42:39.538Z,8.59
2022-12-19T11:43:44.913Z,8.54
2022-12-19T11:44:40.622Z,8.70
2022-12-19T11:45:39.388Z,8.49
2022-12-19T11:46:39.388Z,8.43
2022-12-19T11:47:39.352Z,8.59
2022-12-19T11:48:39.856Z,8.59
2022-12-19T11:49:39.325Z,8.65
2022-12-19T11:50:39.315Z,8.70
2022-12-19T11:51:39.302Z,8.43
2022-12-19T11:53:04.168Z,8.70
2022-12-19T11:53:40.416Z,8.59
2022-12-19T11:54:39.259Z,8.54
2022-12-19T11:55:39.247Z,8.54
2022-12-19T11:56:39.226Z,8.59
2022-12-19T11:57:39.220Z,8.49
2022-12-19T11:58:39.207Z,8.54
2022-12-19T11:59:39.204Z,8.75
2022-12-19T12:00:39.181Z,8.65
2022-12-19T12:01:39.256Z,8.54
2022-12-19T12:02:39.149Z,8.59
2022-12-19T12:03:39.186Z,8.59
2022-12-19T12:04:39.189Z,8.65
2022-12-19T12:05:39.111Z,8.59
2022-12-19T12:06:43.099Z,8.54
2022-12-19T12:08:02.708Z,8.59
2022-12-19T12:09:59.342Z,8.49
2022-12-19T12:14:49.818Z,8.59
2022-12-19T12:19:38.000Z,8.54
2022-12-19T12:20:13.740Z,8.70
2022-12-19T12:20:49.811Z,8.59
2022-12-19T12:21:50.667Z,8.54
2022-12-19T12:26:37.403Z,8.65
2022-12-19T12:27:18.650Z,8.43
2022-12-19T12:29:01.537Z,8.59
2022-12-19T12:30:59.355Z,8.54
2022-12-19T12:31:00.704Z,8.54
2022-12-19T12:31:02.048Z,8.59
2022-12-19T12:31:21.759Z,8.54
2022-12-19T12:31:27.306Z,8.59
2022-12-19T12:31:27.458Z,8.59
2022-12-19T12:31:28.476Z,8.65
2022-12-19T12:31:28.797Z,8.59
2022-12-19T12:31:38.890Z,8.92
2022-12-19T12:31:39.615Z,8.59
2022-12-19T12:31:47.725Z,8.70
2022-12-19T12:32:02.743Z,8.59
2022-12-19T12:32:04.007Z,8.59
2022-12-19T12:32:05.783Z,8.65
2022-12-19T12:35:32.682Z,8.59
2022-12-19T12:35:42.375Z,8.38
2022-12-19T12:37:03.627Z,8.54
2022-12-19T12:38:39.164Z,8.59
2022-12-19T12:39:38.664Z,8.65
2022-12-19T12:40:38.646Z,8.75
2022-12-19T12:41:38.713Z,8.59
2022-12-19T12:42:38.812Z,8.75
2022-12-19T12:43:38.655Z,8.54
2022-12-19T12:44:45.153Z,8.43
2022-12-19T12:45:39.671Z,8.86
2022-12-19T12:46:38.614Z,8.43
2022-12-19T12:47:38.612Z,8.65
2022-12-19T12:48:38.550Z,8.54
2022-12-19T12:49:38.521Z,8.59
2022-12-19T12:50:38.523Z,8.54
2022-12-19T12:51:38.531Z,8.59
2022-12-19T12:52:38.501Z,8.59
2022-12-19T12:53:38.468Z,8.65
2022-12-19T12:54:38.458Z,8.22
2022-12-19T12:55:38.427Z,8.38
2022-12-19T12:56:38.419Z,8.38
2022-12-19T12:57:38.566Z,8.59
2022-12-19T12:58:38.400Z,8.43
2022-12-19T12:59:38.372Z,8.59
2022-12-19T13:00:38.445Z,8.65
2022-12-19T13:01:38.456Z,8.75
2022-12-19T13:02:38.394Z,8.65
2022-12-19T13:03:38.373Z,8.38
2022-12-19T13:04:38.314Z,8.49
2022-12-19T13:05:38.292Z,8.59
2022-12-19T13:06:38.308Z,8.54
2022-12-19T13:07:38.264Z,8.65
2022-12-19T13:08:38.255Z,8.33
2022-12-19T13:09:38.247Z,8.54
2022-12-19T13:10:38.234Z,8.54
2022-12-19T13:11:38.251Z,8.59
2022-12-19T13:12:38.220Z,8.54
2022-12-19T13:13:38.230Z,8.59
2022-12-19T13:14:38.177Z,8.65
2022-12-19T13:15:38.160Z,8.49
2022-12-19T13:16:38.165Z,8.38
2022-12-19T13:17:38.134Z,8.75
2022-12-19T13:18:38.253Z,8.27
2022-12-19T13:19:38.104Z,8.38
2022-12-19T13:20:38.093Z,8.59
2022-12-19T13:21:38.080Z,8.33
2022-12-19T13:22:38.079Z,8.49
2022-12-19T13:23:38.062Z,8.54
2022-12-19T13:24:38.046Z,8.54
2022-12-19T13:25:38.029Z,8.38
2022-12-19T13:26:38.014Z,8.43